Verona-Villafranca Valerio Catullo Airport

LIPX · 威尼托, 意大利

罗盘
风向 的 风向 的 风向 到 风向 130° Verona Villafranca Airport 4/22
风: 4 kt, 2 beaufort


4 kt
改变
0 1.000 2.000 3.000 4.000 5.000
FEW 5.000 ft
METAR LIPX 040950Z 13004KT 080V160 9999 FEW050 21/14 Q1022

METAR Verona Villafranca Airport - LIPX/VRN

Verona Villafranca Airport是Verona,意大利中的大型机场。 该机场有一条跑道: 4/22. 该领域的国际民航组织标志是LIPX 它的国际航空运输协会代码是VRN.

这份报告是针对2022年10月4日 11:50, 当地时间在Verona Villafranca Airport进行的。

机场观察

风向为130°,速度为4 kt。 风向在080°和160°之间变化。

可见度为10 km 或者更多。

有几云在5.000 ft的高度。 没有观察到天花板。

温度和风寒是21 °C。 露点为14 °C,相对湿度为64%。 海平面上的气压为1022 hPa (QNH)。

白天

今天,太阳从07:18升起,在18:51降落。 这适用于Verona Villafranca Airport,世界夏令时可能有所不同。 当地时间与世界标准时间之间的时差为+2 小时。 夏令时目前正在进行中。

公司介绍

我们没有关于这个机场的公司信息。

体会

到Vliegles.nl去找飞行课程,跳伞和其他飞行体验。 浏览页面,了解Verona Villafranca Airport附近所有可用的活动。 你也可以使用搜索功能来寻找你所在地附近的特定飞行课程、跳伞或其他飞行体验。

跑道

Id 标题 侧风 逆风 侧风 %
4/22 046°-226° 4 kt 99 %

逆风成分最大的方向会被突出显示,并用于横风计算。 这并不一定意味着这个方向在使用。

乌云

5.000 ft FEW 几云

温度 & 天气

温度 21 °C
露点 14 °C
相对湿度 64%
Kp-index 2 (0-9)

白天

日出
07:18
中午
13:05
日落
18:51 (6h 33m)

小工具

你想在你的网站上有一个关于Verona Villafranca Airport的当前航空天气(METAR)的小部件吗?

</> 显示HTML代码

我们和第三方通过cookies跟踪您在我们网站上的上网行为。如果您继续,我们认为您同意我们的cookie政策。 了解更多